createdAt,value
2017-06-14T00:02:12.808Z,100909.38
2017-06-14T00:04:41.888Z,100913.59
2017-06-14T00:07:10.934Z,100916.30
2017-06-14T00:09:39.979Z,100912.55
2017-06-14T00:12:09.113Z,100911.95
2017-06-14T00:14:38.147Z,100917.93
2017-06-14T00:17:07.223Z,100912.73
2017-06-14T00:19:36.306Z,100911.49
2017-06-14T00:22:05.364Z,100911.41
2017-06-14T00:24:34.419Z,100907.34
2017-06-14T00:27:03.503Z,100906.85
2017-06-14T00:29:32.572Z,100904.91
2017-06-14T00:32:01.620Z,100909.98
2017-06-14T00:34:30.713Z,100907.33
2017-06-14T00:36:59.761Z,100902.84
2017-06-14T00:39:28.828Z,100913.98
2017-06-14T00:41:57.924Z,100911.49
2017-06-14T00:44:27.024Z,100911.43
2017-06-14T00:46:56.084Z,100920.48
2017-06-14T00:49:25.140Z,100920.38
2017-06-14T00:51:54.225Z,100917.25
2017-06-14T00:54:23.286Z,100913.75
2017-06-14T00:56:52.372Z,100917.43
2017-06-14T00:59:21.466Z,100912.20
2017-06-14T01:01:50.824Z,100915.43
2017-06-14T01:04:19.912Z,100905.00
2017-06-14T01:06:48.988Z,100906.60
2017-06-14T01:09:18.067Z,100909.50
2017-06-14T01:11:47.165Z,100910.80
2017-06-14T01:14:16.245Z,100917.23
2017-06-14T01:16:45.288Z,100921.91
2017-06-14T01:19:14.400Z,100918.77
2017-06-14T01:21:43.435Z,100921.73
2017-06-14T01:24:12.504Z,100920.30
2017-06-14T01:26:41.563Z,100926.77
2017-06-14T01:29:10.648Z,100919.84
2017-06-14T01:31:39.695Z,100917.54
2017-06-14T01:34:08.857Z,100916.17
2017-06-14T01:36:37.908Z,100916.11
2017-06-14T01:39:06.992Z,100908.71
2017-06-14T01:41:36.060Z,100901.18
2017-06-14T01:44:05.132Z,100890.48
2017-06-14T01:46:34.216Z,100890.42
2017-06-14T01:49:03.282Z,100888.33
2017-06-14T01:51:32.323Z,100889.06
2017-06-14T01:54:01.404Z,100888.72
2017-06-14T01:56:30.473Z,100894.12
2017-06-14T01:58:59.548Z,100890.59
2017-06-14T02:01:28.625Z,100893.51
2017-06-14T02:03:57.713Z,100888.28
2017-06-14T02:06:26.777Z,100887.25
2017-06-14T02:08:55.861Z,100881.95
2017-06-14T02:11:24.928Z,100885.65
2017-06-14T02:13:54.527Z,100886.14
2017-06-14T02:16:23.597Z,100887.03
2017-06-14T02:18:52.694Z,100895.05
2017-06-14T02:21:21.778Z,100885.50
2017-06-14T02:23:51.287Z,100889.52
2017-06-14T02:26:20.343Z,100879.06
2017-06-14T02:28:50.457Z,100882.69
2017-06-14T02:31:19.519Z,100881.66
2017-06-14T02:33:49.168Z,100876.45
2017-06-14T02:36:18.381Z,100878.28
2017-06-14T02:38:47.465Z,100874.92
2017-06-14T02:41:16.524Z,100877.95
2017-06-14T02:43:45.605Z,100872.09
2017-06-14T02:46:14.657Z,100880.87
2017-06-14T02:48:43.717Z,100876.53
2017-06-14T02:51:12.889Z,100880.62
2017-06-14T02:53:41.953Z,100880.38
2017-06-14T02:56:11.057Z,100880.70
2017-06-14T02:58:40.099Z,100880.22
2017-06-14T03:01:09.204Z,100881.83
2017-06-14T03:03:38.242Z,100882.23
2017-06-14T03:06:07.320Z,100879.62
2017-06-14T03:08:36.415Z,100879.67
2017-06-14T03:11:05.483Z,100877.81
2017-06-14T03:13:34.577Z,100878.16
2017-06-14T03:16:03.668Z,100887.94
2017-06-14T03:18:32.738Z,100896.42
2017-06-14T03:21:01.800Z,100904.93
2017-06-14T03:23:30.867Z,100907.66
2017-06-14T03:25:59.927Z,100913.28
2017-06-14T03:28:28.996Z,100906.70
2017-06-14T03:30:58.501Z,100909.73
2017-06-14T03:33:27.573Z,100908.88
2017-06-14T03:35:56.676Z,100899.08
2017-06-14T03:38:25.736Z,100900.67
2017-06-14T03:40:54.816Z,100902.69
2017-06-14T03:43:23.889Z,100904.70
2017-06-14T03:45:52.949Z,100908.70
2017-06-14T03:48:22.021Z,100919.63
2017-06-14T03:50:51.112Z,100925.31
2017-06-14T03:53:20.188Z,100917.30
2017-06-14T03:55:49.253Z,100914.66
2017-06-14T03:58:18.341Z,100928.05
2017-06-14T04:00:47.411Z,100928.05
2017-06-14T04:03:16.747Z,100934.87
2017-06-14T04:05:45.788Z,100940.97
2017-06-14T04:08:14.875Z,100933.36
2017-06-14T04:10:43.937Z,100934.39
2017-06-14T04:13:13.013Z,100935.09
2017-06-14T04:15:42.096Z,100939.83
2017-06-14T04:18:11.156Z,100932.70
2017-06-14T04:20:40.218Z,100932.70
2017-06-14T04:23:09.319Z,100940.89
2017-06-14T04:25:38.377Z,100941.86
2017-06-14T04:28:07.473Z,100949.55
2017-06-14T04:30:36.543Z,100939.03
2017-06-14T04:33:05.635Z,100946.27
2017-06-14T04:35:34.689Z,100946.56
2017-06-14T04:38:03.796Z,100952.20
2017-06-14T04:40:32.873Z,100947.84
2017-06-14T04:43:01.925Z,100954.67
2017-06-14T04:45:31.032Z,100952.81
2017-06-14T04:48:00.096Z,100956.72
2017-06-14T04:50:29.162Z,100958.02
2017-06-14T04:52:58.237Z,100958.56
2017-06-14T04:55:27.311Z,100961.63
2017-06-14T04:57:56.395Z,100965.69
2017-06-14T05:00:25.487Z,100968.98
2017-06-14T05:02:54.540Z,100972.81
2017-06-14T05:05:23.608Z,100973.28
2017-06-14T05:07:52.704Z,100976.25
2017-06-14T05:10:21.759Z,100975.87
2017-06-14T05:12:50.880Z,100968.07
2017-06-14T05:15:19.957Z,100967.82
2017-06-14T05:17:49.575Z,100955.23
2017-06-14T05:20:18.656Z,100954.20
2017-06-14T05:22:48.825Z,100954.55
2017-06-14T05:25:17.916Z,100951.41
2017-06-14T05:27:46.947Z,100954.09
2017-06-14T05:30:16.060Z,100946.08
2017-06-14T05:32:45.159Z,100951.67
2017-06-14T05:35:14.245Z,100950.13
2017-06-14T05:37:43.296Z,100948.80
2017-06-14T05:40:12.392Z,100950.09
2017-06-14T05:42:41.456Z,100946.48
2017-06-14T05:45:10.519Z,100947.81
2017-06-14T05:47:39.583Z,100949.16
2017-06-14T05:50:09.040Z,100954.16
2017-06-14T05:52:38.130Z,100957.63
2017-06-14T05:55:07.192Z,100962.70
2017-06-14T05:57:36.584Z,100951.02
2017-06-14T06:00:05.637Z,100962.49
2017-06-14T06:02:34.756Z,100966.30
2017-06-14T06:05:04.128Z,100971.79
2017-06-14T06:07:33.177Z,100963.06
2017-06-14T06:10:02.241Z,100962.61
2017-06-14T06:12:31.325Z,100963.67
2017-06-14T06:15:00.344Z,100964.47
2017-06-14T06:17:29.417Z,100960.02
2017-06-14T06:19:58.467Z,100953.48
2017-06-14T06:22:27.527Z,100952.41
2017-06-14T06:24:56.605Z,100955.09
2017-06-14T06:27:25.661Z,100945.34
2017-06-14T06:29:54.708Z,100949.27
2017-06-14T06:32:23.780Z,100942.55
2017-06-14T06:34:52.811Z,100945.40
2017-06-14T06:37:21.885Z,100945.95
2017-06-14T06:39:51.558Z,100941.31
2017-06-14T06:42:20.635Z,100939.41
2017-06-14T06:44:49.927Z,100931.98
2017-06-14T06:47:19.192Z,100943.58
2017-06-14T06:49:48.333Z,100941.13
2017-06-14T06:52:17.797Z,100940.35
2017-06-14T06:54:46.852Z,100936.42
2017-06-14T06:57:15.973Z,100939.23
2017-06-14T06:59:45.011Z,100950.42
2017-06-14T07:02:14.088Z,100944.91
2017-06-14T07:04:43.157Z,100949.08
2017-06-14T07:07:12.222Z,100953.26
2017-06-14T07:09:41.280Z,100950.39
2017-06-14T07:12:10.657Z,100955.05
2017-06-14T07:14:39.743Z,100948.77
2017-06-14T07:17:08.804Z,100955.43
2017-06-14T07:19:37.876Z,100957.25
2017-06-14T07:22:06.960Z,100950.33
2017-06-14T07:24:36.003Z,100952.09
2017-06-14T07:27:05.096Z,100955.14
2017-06-14T07:29:34.179Z,100964.70
2017-06-14T07:32:03.228Z,100953.72
2017-06-14T07:34:32.295Z,100958.27
2017-06-14T07:37:01.350Z,100963.41
2017-06-14T07:39:30.420Z,100950.88
2017-06-14T07:41:59.488Z,100946.77
2017-06-14T07:44:28.538Z,100954.77
2017-06-14T07:46:57.943Z,100948.33
2017-06-14T07:49:27.026Z,100943.45
2017-06-14T07:51:56.509Z,100946.87
2017-06-14T07:54:26.621Z,100943.27
2017-06-14T07:56:55.664Z,100944.80
2017-06-14T07:59:24.716Z,100945.31
2017-06-14T08:01:53.803Z,100941.22
2017-06-14T08:04:22.997Z,100945.31
2017-06-14T08:06:52.136Z,100948.20
2017-06-14T08:09:21.195Z,100947.60
2017-06-14T08:11:50.223Z,100958.97
2017-06-14T08:14:19.312Z,100960.34
2017-06-14T08:16:48.353Z,100952.37
2017-06-14T08:19:17.436Z,100951.03
2017-06-14T08:21:46.495Z,100950.23
2017-06-14T08:24:15.550Z,100945.81
2017-06-14T08:26:44.616Z,100948.91
2017-06-14T08:29:13.731Z,100946.24
2017-06-14T08:31:42.792Z,100945.34
2017-06-14T08:34:11.864Z,100937.81
2017-06-14T08:36:40.904Z,100932.52
2017-06-14T08:39:10.004Z,100940.84
2017-06-14T08:41:39.053Z,100929.03
2017-06-14T08:44:08.142Z,100929.73
2017-06-14T08:46:37.205Z,100929.27
2017-06-14T08:49:06.285Z,100931.02
2017-06-14T08:51:35.307Z,100920.22
2017-06-14T08:54:04.868Z,100924.41
2017-06-14T08:56:33.893Z,100915.37
2017-06-14T08:59:02.935Z,100916.34
2017-06-14T09:01:38.623Z,100912.00
2017-06-14T09:04:07.665Z,100910.16
2017-06-14T09:06:36.731Z,100914.51
2017-06-14T09:09:05.961Z,100907.65
2017-06-14T09:11:34.999Z,100914.17
2017-06-14T09:14:04.110Z,100904.02
2017-06-14T09:16:33.163Z,100903.38
2017-06-14T09:19:02.225Z,100909.45
2017-06-14T09:21:31.271Z,100903.73
2017-06-14T09:24:00.324Z,100904.05
2017-06-14T09:26:29.383Z,100904.45
2017-06-14T09:28:58.446Z,100906.55
2017-06-14T09:31:27.496Z,100901.80
2017-06-14T09:33:56.563Z,100903.78
2017-06-14T09:36:25.669Z,100894.95
2017-06-14T09:38:54.701Z,100898.01
2017-06-14T09:41:23.760Z,100899.44
2017-06-14T09:43:52.833Z,100903.42
2017-06-14T09:46:21.921Z,100896.46
2017-06-14T09:48:51.507Z,100897.61
2017-06-14T09:51:20.539Z,100888.03
2017-06-14T09:53:49.624Z,100891.95
2017-06-14T09:56:18.720Z,100893.06
2017-06-14T09:58:47.764Z,100882.88
2017-06-14T10:01:16.915Z,100879.84
2017-06-14T10:03:46.037Z,100882.91
2017-06-14T10:06:15.111Z,100874.63
2017-06-14T10:08:44.173Z,100877.06
2017-06-14T10:11:13.272Z,100875.84
2017-06-14T10:13:42.316Z,100874.44
2017-06-14T10:16:11.392Z,100878.22
2017-06-14T10:18:40.467Z,100877.02
2017-06-14T10:21:09.529Z,100873.67
2017-06-14T10:23:38.659Z,100872.08
2017-06-14T10:26:07.889Z,100868.27
2017-06-14T10:28:36.935Z,100868.46
2017-06-14T10:31:06.081Z,100860.86
2017-06-14T10:33:35.325Z,100859.20
2017-06-14T10:36:04.373Z,100854.47
2017-06-14T10:38:33.414Z,100853.48
2017-06-14T10:41:02.552Z,100849.17
2017-06-14T10:43:31.588Z,100842.73
2017-06-14T10:46:00.636Z,100845.61
2017-06-14T10:48:29.797Z,100833.95
2017-06-14T10:50:58.845Z,100845.09
2017-06-14T10:53:27.916Z,100840.53
2017-06-14T10:55:56.984Z,100844.27
2017-06-14T10:58:26.031Z,100840.25
2017-06-14T11:00:55.120Z,100840.75
2017-06-14T11:03:24.180Z,100828.36
2017-06-14T11:05:53.257Z,100831.73
2017-06-14T11:08:22.305Z,100830.88
2017-06-14T11:10:51.868Z,100829.52
2017-06-14T11:13:20.903Z,100826.24
2017-06-14T11:15:50.420Z,100817.19
2017-06-14T11:18:19.493Z,100816.59
2017-06-14T11:20:48.568Z,100824.30
2017-06-14T11:23:17.629Z,100816.13
2017-06-14T11:25:46.720Z,100810.20
2017-06-14T11:28:16.156Z,100810.41
2017-06-14T11:30:45.205Z,100802.23
2017-06-14T11:33:15.928Z,100812.27
2017-06-14T11:35:44.987Z,100803.13
2017-06-14T11:38:14.052Z,100799.73
2017-06-14T11:40:43.120Z,100799.60
2017-06-14T11:43:12.217Z,100798.27
2017-06-14T11:45:41.255Z,100798.12
2017-06-14T11:48:10.353Z,100799.16
2017-06-14T11:50:39.409Z,100802.36
2017-06-14T11:53:08.689Z,100797.28
2017-06-14T11:55:37.743Z,100796.89
2017-06-14T11:58:06.845Z,100789.74
2017-06-14T12:00:35.881Z,100790.38
2017-06-14T12:03:06.320Z,100783.02
2017-06-14T12:05:36.408Z,100788.97
2017-06-14T12:08:05.466Z,100788.19
2017-06-14T12:10:34.529Z,100790.91
2017-06-14T12:13:03.823Z,100776.22
2017-06-14T12:15:32.899Z,100780.94
2017-06-14T12:18:01.964Z,100781.52
2017-06-14T12:20:31.026Z,100780.73
2017-06-14T12:23:00.099Z,100768.11
2017-06-14T12:25:29.129Z,100776.48
2017-06-14T12:27:58.205Z,100768.75
2017-06-14T12:30:27.240Z,100769.55
2017-06-14T12:32:56.320Z,100775.50
2017-06-14T12:35:25.605Z,100766.16
2017-06-14T12:37:54.652Z,100765.17
2017-06-14T12:40:23.898Z,100766.77
2017-06-14T12:42:52.939Z,100761.42
2017-06-14T12:45:21.996Z,100757.67
2017-06-14T12:47:51.060Z,100758.45
2017-06-14T12:50:20.168Z,100766.58
2017-06-14T12:52:50.181Z,100767.16
2017-06-14T12:55:20.062Z,100767.18
2017-06-14T12:57:49.577Z,100767.16
2017-06-14T13:00:19.379Z,100770.14
2017-06-14T13:02:49.187Z,100771.14
2017-06-14T13:05:18.411Z,100767.77
2017-06-14T13:07:47.686Z,100767.75
2017-06-14T13:10:17.070Z,100759.44
2017-06-14T13:12:46.165Z,100759.83
2017-06-14T13:15:15.230Z,100753.89
2017-06-14T13:17:44.301Z,100752.29
2017-06-14T13:20:13.364Z,100747.55
2017-06-14T13:22:42.409Z,100742.00
2017-06-14T13:25:11.825Z,100734.45
2017-06-14T13:27:40.898Z,100736.23
2017-06-14T13:30:10.004Z,100739.59
2017-06-14T13:32:39.061Z,100728.48
2017-06-14T13:35:08.333Z,100729.27
2017-06-14T13:37:37.396Z,100726.70
2017-06-14T13:40:06.464Z,100725.71
2017-06-14T13:42:35.532Z,100728.89
2017-06-14T13:45:04.593Z,100725.52
2017-06-14T13:47:33.666Z,100719.95
2017-06-14T13:50:02.755Z,100714.80
2017-06-14T13:52:31.801Z,100713.96
2017-06-14T13:55:00.850Z,100717.77
2017-06-14T13:57:29.924Z,100713.98
2017-06-14T13:59:58.993Z,100708.83
2017-06-14T14:02:28.044Z,100712.41
2017-06-14T14:04:57.145Z,100703.27
2017-06-14T14:07:26.192Z,100700.52
2017-06-14T14:09:55.242Z,100693.53
2017-06-14T14:12:24.326Z,100688.59
2017-06-14T14:14:53.378Z,100691.17
2017-06-14T14:17:22.489Z,100690.35
2017-06-14T14:19:51.539Z,100681.23
2017-06-14T14:22:20.684Z,100689.55
2017-06-14T14:24:49.763Z,100677.65
2017-06-14T14:27:18.855Z,100679.00
2017-06-14T14:29:47.956Z,100680.78
2017-06-14T14:32:16.999Z,100683.31
2017-06-14T14:34:46.085Z,100675.17
2017-06-14T14:37:15.147Z,100680.50
2017-06-14T14:39:44.199Z,100674.18
2017-06-14T14:42:13.305Z,100670.02
2017-06-14T14:44:42.374Z,100676.56
2017-06-14T14:47:11.446Z,100669.22
2017-06-14T14:49:40.493Z,100670.80
2017-06-14T14:52:11.458Z,100668.41
2017-06-14T14:54:40.545Z,100653.73
2017-06-14T14:57:09.653Z,100655.73
2017-06-14T14:59:38.733Z,100653.95
2017-06-14T15:02:07.810Z,100657.78
2017-06-14T15:04:36.857Z,100652.64
2017-06-14T15:07:05.966Z,100645.91
2017-06-14T15:09:35.779Z,100637.99
2017-06-14T15:12:04.843Z,100631.88
2017-06-14T15:14:33.910Z,100637.78
2017-06-14T15:17:02.968Z,100636.22
2017-06-14T15:19:32.012Z,100623.72
2017-06-14T15:22:01.076Z,100624.52
2017-06-14T15:24:30.149Z,100625.25
2017-06-14T15:26:59.264Z,100623.69
2017-06-14T15:29:28.322Z,100617.72
2017-06-14T15:31:57.364Z,100617.72
2017-06-14T15:34:26.420Z,100615.55
2017-06-14T15:36:55.517Z,100618.14
2017-06-14T15:39:24.585Z,100610.55
2017-06-14T15:41:53.675Z,100609.35
2017-06-14T15:44:22.749Z,100615.68
2017-06-14T15:46:51.967Z,100613.87
2017-06-14T15:49:20.995Z,100615.88
2017-06-14T15:51:50.529Z,100607.53
2017-06-14T15:54:19.608Z,100607.34
2017-06-14T15:56:49.156Z,100606.59
2017-06-14T15:59:18.372Z,100606.02
2017-06-14T16:01:47.476Z,100598.70
2017-06-14T16:04:16.553Z,100599.07
2017-06-14T16:06:45.612Z,100593.34
2017-06-14T16:09:14.691Z,100585.37
2017-06-14T16:11:43.765Z,100590.10
2017-06-14T16:14:12.840Z,100582.36
2017-06-14T16:16:41.895Z,100577.23
2017-06-14T16:19:10.944Z,100577.22
2017-06-14T16:21:40.026Z,100588.12
2017-06-14T16:24:09.072Z,100581.33
2017-06-14T16:26:38.157Z,100582.50
2017-06-14T16:29:07.249Z,100576.18
2017-06-14T16:31:36.325Z,100579.50
2017-06-14T16:34:05.372Z,100571.64
2017-06-14T16:36:34.472Z,100576.08
2017-06-14T16:39:03.539Z,100572.70
2017-06-14T16:41:32.587Z,100572.34
2017-06-14T16:44:01.665Z,100562.63
2017-06-14T16:46:30.752Z,100560.02
2017-06-14T16:48:59.921Z,100556.67
2017-06-14T16:51:28.969Z,100553.12
2017-06-14T16:53:58.067Z,100555.12
2017-06-14T16:56:27.123Z,100554.86
2017-06-14T16:58:56.165Z,100549.88
2017-06-14T17:01:25.249Z,100553.65
2017-06-14T17:03:54.287Z,100554.63
2017-06-14T17:06:23.361Z,100552.09
2017-06-14T17:08:52.424Z,100550.31
2017-06-14T17:11:21.474Z,100550.30
2017-06-14T17:13:50.553Z,100549.17
2017-06-14T17:16:19.621Z,100548.74
2017-06-14T17:18:49.169Z,100551.66
2017-06-14T17:21:18.332Z,100546.11
2017-06-14T17:23:47.424Z,100544.92
2017-06-14T17:26:16.477Z,100542.73
2017-06-14T17:28:45.563Z,100546.73
2017-06-14T17:31:14.615Z,100546.36
2017-06-14T17:33:43.675Z,100548.36
2017-06-14T17:36:12.739Z,100541.41
2017-06-14T17:38:41.804Z,100548.52
2017-06-14T17:41:10.893Z,100542.81
2017-06-14T17:43:39.937Z,100541.19
2017-06-14T17:46:09.059Z,100537.23
2017-06-14T17:48:38.087Z,100536.45
2017-06-14T17:51:07.324Z,100532.88
2017-06-14T17:53:36.408Z,100534.08
2017-06-14T17:56:05.671Z,100535.87
2017-06-14T17:58:34.765Z,100527.34
2017-06-14T18:01:03.829Z,100530.93
2017-06-14T18:03:33.177Z,100532.50
2017-06-14T18:06:02.255Z,100531.91
2017-06-14T18:08:31.358Z,100529.56
2017-06-14T18:11:00.429Z,100531.92
2017-06-14T18:13:29.472Z,100523.78
2017-06-14T18:15:58.954Z,100527.53
2017-06-14T18:18:28.052Z,100520.02
2017-06-14T18:20:57.121Z,100521.19
2017-06-14T18:23:26.214Z,100511.07
2017-06-14T18:25:55.276Z,100513.84
2017-06-14T18:28:24.359Z,100509.25
2017-06-14T18:30:53.418Z,100505.47
2017-06-14T18:33:22.486Z,100507.85
2017-06-14T18:35:51.955Z,100506.45
2017-06-14T18:38:21.003Z,100506.66
2017-06-14T18:40:50.251Z,100509.44
2017-06-14T18:43:19.316Z,100505.30
2017-06-14T18:45:48.447Z,100505.91
2017-06-14T18:48:17.498Z,100512.84
2017-06-14T18:50:46.556Z,100509.94
2017-06-14T18:53:15.773Z,100506.79
2017-06-14T18:55:44.807Z,100505.41
2017-06-14T18:58:13.895Z,100507.72
2017-06-14T19:00:42.973Z,100504.39
2017-06-14T19:03:12.029Z,100509.58
2017-06-14T19:05:41.096Z,100504.77
2017-06-14T19:08:10.185Z,100509.03
2017-06-14T19:10:39.292Z,100505.58
2017-06-14T19:13:08.349Z,100506.67
2017-06-14T19:15:37.432Z,100508.31
2017-06-14T19:18:06.516Z,100507.74
2017-06-14T19:20:35.569Z,100513.34
2017-06-14T19:23:04.640Z,100508.63
2017-06-14T19:25:39.408Z,100509.27
2017-06-14T19:28:08.496Z,100510.47
2017-06-14T19:30:40.038Z,100510.13
2017-06-14T19:33:09.205Z,100509.16
2017-06-14T19:35:38.247Z,100509.95
2017-06-14T19:38:07.322Z,100507.40
2017-06-14T19:40:36.398Z,100515.32
2017-06-14T19:43:05.521Z,100519.88
2017-06-14T19:45:34.609Z,100515.14
2017-06-14T19:48:04.016Z,100517.75
2017-06-14T19:50:33.064Z,100517.77
2017-06-14T19:53:02.135Z,100523.50
2017-06-14T19:55:31.207Z,100524.50
2017-06-14T19:58:00.486Z,100526.30
2017-06-14T20:00:29.528Z,100521.13
2017-06-14T20:02:58.611Z,100524.87
2017-06-14T20:05:27.663Z,100529.02
2017-06-14T20:07:57.176Z,100533.35
2017-06-14T20:10:26.456Z,100534.95
2017-06-14T20:12:55.548Z,100538.49
2017-06-14T20:15:24.615Z,100537.48
2017-06-14T20:17:53.671Z,100540.81
2017-06-14T20:20:22.832Z,100538.25
2017-06-14T20:22:52.427Z,100535.86
2017-06-14T20:25:21.668Z,100542.16
2017-06-14T20:27:50.697Z,100539.57
2017-06-14T20:30:19.833Z,100539.91
2017-06-14T20:32:48.868Z,100545.84
2017-06-14T20:35:17.955Z,100536.13
2017-06-14T20:37:47.028Z,100539.45
2017-06-14T20:40:16.116Z,100535.47
2017-06-14T20:42:45.175Z,100541.17
2017-06-14T20:45:14.396Z,100533.86
2017-06-14T20:47:43.577Z,100536.00
2017-06-14T20:50:12.743Z,100535.44
2017-06-14T20:52:41.796Z,100535.99
2017-06-14T20:55:10.908Z,100541.69
2017-06-14T20:57:39.997Z,100536.52
2017-06-14T21:00:09.093Z,100539.67
2017-06-14T21:02:38.148Z,100533.91
2017-06-14T21:05:08.292Z,100537.61
2017-06-14T21:07:38.180Z,100538.75
2017-06-14T21:10:07.276Z,100542.86
2017-06-14T21:12:36.329Z,100547.39
2017-06-14T21:15:05.402Z,100535.08
2017-06-14T21:17:35.372Z,100523.22
2017-06-14T21:20:04.454Z,100523.57
2017-06-14T21:22:33.545Z,100515.23
2017-06-14T21:25:02.588Z,100511.23
2017-06-14T21:27:31.652Z,100519.08
2017-06-14T21:30:00.727Z,100518.49
2017-06-14T21:32:29.793Z,100523.66
2017-06-14T21:34:58.853Z,100523.02
2017-06-14T21:37:27.945Z,100525.00
2017-06-14T21:39:56.988Z,100517.63
2017-06-14T21:42:26.154Z,100529.41
2017-06-14T21:44:55.305Z,100521.28
2017-06-14T21:47:24.379Z,100522.63
2017-06-14T21:49:53.442Z,100520.42
2017-06-14T21:52:22.526Z,100520.41
2017-06-14T21:54:52.050Z,100520.02
2017-06-14T21:57:21.061Z,100528.83
2017-06-14T21:59:50.491Z,100519.30
2017-06-14T22:02:19.572Z,100526.57
2017-06-14T22:04:48.621Z,100530.08
2017-06-14T22:07:17.701Z,100526.02
2017-06-14T22:09:46.801Z,100529.69
2017-06-14T22:12:15.975Z,100524.03
2017-06-14T22:14:45.030Z,100532.30
2017-06-14T22:17:14.115Z,100532.31
2017-06-14T22:19:43.175Z,100526.16
2017-06-14T22:22:12.221Z,100528.92
2017-06-14T22:24:41.298Z,100526.59
2017-06-14T22:27:10.341Z,100527.39
2017-06-14T22:29:39.422Z,100525.41
2017-06-14T22:32:08.667Z,100530.34
2017-06-14T22:34:37.736Z,100527.77
2017-06-14T22:37:06.840Z,100535.19
2017-06-14T22:39:35.911Z,100535.97
2017-06-14T22:42:05.020Z,100529.86
2017-06-14T22:44:34.075Z,100532.02
2017-06-14T22:47:03.174Z,100528.25
2017-06-14T22:49:32.278Z,100530.09
2017-06-14T22:52:01.310Z,100528.55
2017-06-14T22:54:30.456Z,100527.45
2017-06-14T22:56:59.567Z,100522.95
2017-06-14T22:59:28.627Z,100520.17
2017-06-14T23:01:57.678Z,100520.62
2017-06-14T23:04:27.111Z,100524.19
2017-06-14T23:06:56.340Z,100517.95
2017-06-14T23:09:25.392Z,100521.99
2017-06-14T23:11:54.474Z,100519.94
2017-06-14T23:14:23.529Z,100522.31
2017-06-14T23:16:52.603Z,100521.90
2017-06-14T23:19:21.684Z,100522.48
2017-06-14T23:21:50.731Z,100512.75
2017-06-14T23:24:19.824Z,100516.28
2017-06-14T23:26:49.063Z,100511.94
2017-06-14T23:29:18.115Z,100516.00
2017-06-14T23:31:47.212Z,100509.00
2017-06-14T23:34:16.441Z,100510.92
2017-06-14T23:36:45.529Z,100510.42
2017-06-14T23:39:14.602Z,100507.39
2017-06-14T23:41:43.675Z,100506.55
2017-06-14T23:44:12.747Z,100508.36
2017-06-14T23:46:41.816Z,100505.43
2017-06-14T23:49:11.662Z,100496.47
2017-06-14T23:51:40.708Z,100493.01
2017-06-14T23:54:09.821Z,100491.80
2017-06-14T23:56:38.908Z,100497.85
2017-06-14T23:59:08.761Z,100493.54
